createdAt,value
2023-02-24T00:01:19.278Z,18.30
2023-02-24T00:06:22.670Z,18.30
2023-02-24T00:11:26.247Z,18.30
2023-02-24T00:16:31.201Z,18.30
2023-02-24T00:21:34.954Z,18.30
2023-02-24T00:26:39.082Z,18.30
2023-02-24T00:31:44.065Z,18.30
2023-02-24T00:36:47.486Z,18.30
2023-02-24T00:41:51.256Z,18.30
2023-02-24T00:46:56.000Z,18.30
2023-02-24T00:51:59.837Z,18.20
2023-02-24T00:57:04.077Z,18.20
2023-02-24T01:02:08.906Z,18.20
2023-02-24T01:07:13.254Z,18.20
2023-02-24T01:12:38.697Z,18.20
2023-02-24T01:17:43.869Z,18.20
2023-02-24T01:22:48.936Z,18.10
2023-02-24T01:27:54.037Z,18.10
2023-02-24T01:32:58.887Z,18.10
2023-02-24T01:38:05.837Z,18.10
2023-02-24T01:43:11.867Z,18.10
2023-02-24T01:48:17.995Z,18.10
2023-02-24T01:53:21.571Z,18.00
2023-02-24T01:58:28.205Z,18.00
2023-02-24T02:03:36.333Z,18.00
2023-02-24T02:08:43.000Z,18.00
2023-02-24T02:13:50.344Z,18.00
2023-02-24T02:19:06.900Z,17.90
2023-02-24T02:24:34.073Z,17.90
2023-02-24T02:30:09.354Z,17.90
2023-02-24T02:35:19.162Z,17.90
2023-02-24T02:40:27.680Z,17.90
2023-02-24T02:45:37.629Z,17.90
2023-02-24T02:50:47.581Z,17.90
2023-02-24T02:55:55.963Z,17.90
2023-02-24T03:01:02.934Z,17.90
2023-02-24T03:06:14.467Z,17.90
2023-02-24T03:11:20.577Z,17.90
2023-02-24T03:16:26.653Z,17.90
2023-02-24T03:21:34.869Z,17.90
2023-02-24T03:26:44.246Z,17.90
2023-02-24T03:31:58.609Z,17.80
2023-02-24T03:37:03.575Z,17.80
2023-02-24T03:42:14.095Z,17.90
2023-02-24T03:47:20.490Z,17.80
2023-02-24T03:52:33.625Z,17.80
2023-02-24T03:57:55.955Z,17.80
2023-02-24T04:03:15.373Z,17.80
2023-02-24T04:08:24.186Z,17.90
2023-02-24T04:13:35.879Z,17.80
2023-02-24T04:18:51.078Z,17.80
2023-02-24T04:23:58.414Z,17.80
2023-02-24T04:29:03.024Z,17.80
2023-02-24T04:34:09.868Z,17.80
2023-02-24T04:39:18.974Z,17.80
2023-02-24T04:44:28.301Z,17.80
2023-02-24T04:49:31.635Z,17.80
2023-02-24T04:54:36.647Z,17.80
2023-02-24T04:59:40.779Z,17.80
2023-02-24T05:04:44.695Z,17.80
2023-02-24T05:09:49.821Z,17.80
2023-02-24T05:14:54.779Z,17.80
2023-02-24T05:20:15.296Z,17.70
2023-02-24T05:25:25.367Z,17.70
2023-02-24T05:30:29.636Z,17.70
2023-02-24T05:35:33.365Z,17.70
2023-02-24T05:40:45.420Z,17.70
2023-02-24T05:45:49.418Z,17.60
2023-02-24T05:50:55.158Z,17.60
2023-02-24T05:56:06.014Z,17.60
2023-02-24T06:01:16.411Z,17.60
2023-02-24T06:06:19.799Z,17.60
2023-02-24T06:11:24.803Z,17.50
2023-02-24T06:16:28.378Z,17.50
2023-02-24T06:21:31.800Z,17.50
2023-02-24T06:26:36.994Z,17.50
2023-02-24T06:31:41.828Z,17.50
2023-02-24T06:36:47.085Z,17.60
2023-02-24T06:41:52.988Z,17.80
2023-02-24T06:46:56.448Z,18.10
2023-02-24T06:52:00.203Z,18.30
2023-02-24T06:57:09.927Z,18.30
2023-02-24T07:02:13.315Z,18.30
2023-02-24T07:07:17.725Z,18.30
2023-02-24T07:12:22.954Z,18.30
2023-02-24T07:17:26.526Z,18.30
2023-02-24T07:22:29.979Z,18.40
2023-02-24T07:27:34.788Z,18.80
2023-02-24T07:32:40.659Z,19.10
2023-02-24T07:37:43.982Z,19.30
2023-02-24T07:42:48.901Z,19.40
2023-02-24T07:47:52.356Z,19.40
2023-02-24T07:52:55.781Z,19.30
2023-02-24T07:58:01.666Z,19.30
2023-02-24T08:03:05.800Z,19.10
2023-02-24T08:08:09.244Z,19.10
2023-02-24T08:13:13.987Z,19.10
2023-02-24T08:18:20.112Z,19.00
2023-02-24T08:23:24.368Z,18.90
2023-02-24T08:28:29.175Z,18.90
2023-02-24T08:33:32.992Z,18.90
2023-02-24T08:38:52.299Z,19.00
2023-02-24T08:43:57.191Z,19.00
2023-02-24T08:49:01.609Z,19.00
2023-02-24T08:54:11.199Z,19.10
2023-02-24T08:59:38.018Z,19.10
2023-02-24T09:04:44.942Z,19.20
2023-02-24T09:09:48.872Z,19.30
2023-02-24T09:14:56.733Z,19.30
2023-02-24T09:20:31.927Z,19.40
2023-02-24T09:25:44.886Z,19.50
2023-02-24T09:30:53.589Z,19.60
2023-02-24T09:36:10.080Z,19.60
2023-02-24T09:41:32.044Z,19.70
2023-02-24T09:46:54.229Z,19.80
2023-02-24T09:52:09.041Z,19.90
2023-02-24T09:57:18.322Z,20.00
2023-02-24T10:02:39.609Z,20.10
2023-02-24T10:07:45.214Z,20.30
2023-02-24T10:12:53.576Z,20.40
2023-02-24T10:18:05.096Z,20.50
2023-02-24T10:23:16.024Z,20.70
2023-02-24T10:28:35.816Z,20.90
2023-02-24T10:33:48.732Z,21.10
2023-02-24T10:38:56.076Z,21.30
2023-02-24T10:44:00.369Z,21.60
2023-02-24T10:49:10.064Z,21.90
2023-02-24T10:54:34.419Z,22.20
2023-02-24T11:00:05.363Z,22.50
2023-02-24T11:05:28.552Z,22.70
2023-02-24T11:10:42.866Z,22.80
2023-02-24T11:16:06.680Z,22.90
2023-02-24T11:21:14.484Z,23.00
2023-02-24T11:26:20.728Z,23.00
2023-02-24T11:31:40.482Z,23.00
2023-02-24T11:36:55.068Z,23.00
2023-02-24T11:42:01.798Z,23.10
2023-02-24T11:47:12.171Z,23.20
2023-02-24T11:52:21.538Z,23.30
2023-02-24T11:57:31.972Z,23.40
2023-02-24T12:02:43.723Z,23.40
2023-02-24T12:07:52.215Z,23.40
2023-02-24T12:13:05.249Z,23.40
2023-02-24T12:18:17.807Z,23.40
2023-02-24T12:23:27.217Z,23.40
2023-02-24T12:28:48.820Z,23.30
2023-02-24T12:34:04.114Z,23.30
2023-02-24T12:39:15.974Z,23.30
2023-02-24T12:44:28.121Z,23.30
2023-02-24T12:49:47.299Z,23.30
2023-02-24T12:54:59.482Z,23.30
2023-02-24T13:00:11.792Z,23.30
2023-02-24T13:05:22.185Z,23.30
2023-02-24T13:10:37.722Z,23.30
2023-02-24T13:15:51.921Z,23.30
2023-02-24T13:21:07.586Z,23.20
2023-02-24T13:26:12.410Z,23.20
2023-02-24T13:31:15.989Z,23.20
2023-02-24T13:36:21.978Z,23.10
2023-02-24T13:41:41.827Z,23.10
2023-02-24T13:46:59.016Z,23.00
2023-02-24T13:52:05.078Z,22.90
2023-02-24T13:57:30.148Z,22.90
2023-02-24T14:02:42.889Z,22.70
2023-02-24T14:07:49.487Z,22.70
2023-02-24T14:13:05.019Z,22.60
2023-02-24T14:18:18.605Z,22.50
2023-02-24T14:23:25.053Z,22.50
2023-02-24T14:28:32.595Z,22.40
2023-02-24T14:33:38.139Z,22.30
2023-02-24T14:38:43.327Z,22.30
2023-02-24T14:43:47.995Z,22.20
2023-02-24T14:48:55.376Z,22.20
2023-02-24T14:54:06.076Z,22.30
2023-02-24T14:59:59.715Z,22.50
2023-02-24T15:05:04.923Z,22.70
2023-02-24T15:10:18.659Z,22.90
2023-02-24T15:15:24.389Z,23.00
2023-02-24T15:20:34.024Z,23.00
2023-02-24T15:25:44.834Z,23.00
2023-02-24T15:31:00.406Z,22.90
2023-02-24T15:36:11.238Z,22.70
2023-02-24T15:41:16.242Z,22.60
2023-02-24T15:46:26.281Z,22.60
2023-02-24T15:51:37.094Z,22.40
2023-02-24T15:56:42.669Z,22.30
2023-02-24T16:01:46.994Z,22.30
2023-02-24T16:06:55.432Z,22.10
2023-02-24T16:11:59.259Z,22.10
2023-02-24T16:17:09.098Z,22.00
2023-02-24T16:22:13.863Z,22.00
2023-02-24T16:27:19.217Z,21.90
2023-02-24T16:32:27.141Z,21.80
2023-02-24T16:37:32.216Z,21.80
2023-02-24T16:42:36.101Z,21.70
2023-02-24T16:47:41.131Z,21.70
2023-02-24T16:52:46.654Z,21.70
2023-02-24T16:57:50.770Z,21.60
2023-02-24T17:02:55.472Z,21.60
2023-02-24T17:08:00.576Z,21.50
2023-02-24T17:13:04.136Z,21.50
2023-02-24T17:18:08.729Z,21.40
2023-02-24T17:23:15.778Z,21.40
2023-02-24T17:28:19.975Z,21.40
2023-02-24T17:33:24.317Z,21.30
2023-02-24T17:38:31.008Z,21.30
2023-02-24T17:43:35.331Z,21.20
2023-02-24T17:48:39.200Z,21.20
2023-02-24T17:53:44.773Z,21.10
2023-02-24T17:58:49.387Z,21.10
2023-02-24T18:03:53.984Z,21.00
2023-02-24T18:08:59.332Z,21.00
2023-02-24T18:14:05.412Z,20.90
2023-02-24T18:19:11.437Z,20.90
2023-02-24T18:24:19.221Z,20.80
2023-02-24T18:29:26.633Z,20.90
2023-02-24T18:34:31.186Z,20.80
2023-02-24T18:39:38.043Z,20.80
2023-02-24T18:44:42.798Z,20.80
2023-02-24T18:49:48.516Z,20.70
2023-02-24T18:54:56.146Z,20.70
2023-02-24T19:00:01.175Z,20.70
2023-02-24T19:05:06.548Z,20.70
2023-02-24T19:10:14.500Z,20.60
2023-02-24T19:15:19.916Z,20.60
2023-02-24T19:20:24.767Z,20.60
2023-02-24T19:25:31.207Z,20.50
2023-02-24T19:30:36.578Z,20.50
2023-02-24T19:35:43.055Z,20.40
2023-02-24T19:40:52.324Z,20.40
2023-02-24T19:45:57.008Z,20.40
2023-02-24T19:51:05.601Z,20.30
2023-02-24T19:56:12.579Z,20.30
2023-02-24T20:01:19.098Z,20.20
2023-02-24T20:06:29.810Z,20.10
2023-02-24T20:11:40.575Z,20.00
2023-02-24T20:16:45.903Z,20.00
2023-02-24T20:21:50.731Z,19.90
2023-02-24T20:26:57.221Z,19.90
2023-02-24T20:32:01.917Z,19.80
2023-02-24T20:37:07.152Z,19.80
2023-02-24T20:42:15.197Z,19.70
2023-02-24T20:47:19.967Z,19.70
2023-02-24T20:52:24.894Z,19.60
2023-02-24T20:57:31.378Z,19.50
2023-02-24T21:02:35.594Z,19.40
2023-02-24T21:07:42.193Z,19.40
2023-02-24T21:12:50.067Z,19.30
2023-02-24T21:17:54.488Z,19.20
2023-02-24T21:23:01.592Z,19.20
2023-02-24T21:28:07.516Z,19.10
2023-02-24T21:33:11.652Z,19.00
2023-02-24T21:38:15.299Z,19.00
2023-02-24T21:43:21.802Z,19.00
2023-02-24T21:48:25.616Z,18.90
2023-02-24T21:53:30.097Z,18.90
2023-02-24T21:58:34.784Z,18.80
2023-02-24T22:03:38.274Z,18.80
2023-02-24T22:08:45.601Z,18.70
2023-02-24T22:13:50.973Z,18.70
2023-02-24T22:18:55.771Z,18.70
2023-02-24T22:24:01.128Z,18.80
2023-02-24T22:29:06.092Z,18.70
2023-02-24T22:34:09.460Z,18.70
2023-02-24T22:39:16.692Z,18.70
2023-02-24T22:44:21.436Z,18.70
2023-02-24T22:49:24.709Z,18.80
2023-02-24T22:54:28.007Z,18.80
2023-02-24T22:59:33.038Z,18.80
2023-02-24T23:04:36.795Z,18.80
2023-02-24T23:09:40.179Z,18.80
2023-02-24T23:14:44.907Z,18.70
2023-02-24T23:19:48.188Z,18.60
2023-02-24T23:24:52.025Z,18.60
2023-02-24T23:29:56.751Z,18.50
2023-02-24T23:35:00.146Z,18.40
2023-02-24T23:40:08.058Z,18.40
2023-02-24T23:45:13.031Z,18.30
2023-02-24T23:50:16.434Z,18.30
2023-02-24T23:55:20.117Z,18.30
